createdAt,value
2023-05-02T00:00:08.910Z,525.00
2023-05-02T00:01:08.954Z,526.00
2023-05-02T00:02:09.047Z,526.00
2023-05-02T00:03:09.151Z,525.00
2023-05-02T00:04:08.194Z,522.00
2023-05-02T00:05:09.121Z,526.00
2023-05-02T00:06:08.257Z,522.00
2023-05-02T00:07:08.276Z,525.00
2023-05-02T00:08:09.276Z,523.00
2023-05-02T00:09:09.286Z,522.00
2023-05-02T00:10:09.338Z,524.00
2023-05-02T00:11:09.338Z,527.00
2023-05-02T00:12:08.359Z,523.00
2023-05-02T00:13:08.405Z,525.00
2023-05-02T00:14:09.430Z,527.00
2023-05-02T00:15:09.567Z,526.00
2023-05-02T00:16:09.525Z,522.00
2023-05-02T00:17:08.574Z,524.00
2023-05-02T00:18:08.638Z,523.00
2023-05-02T00:19:08.683Z,523.00
2023-05-02T00:20:08.664Z,522.00
2023-05-02T00:21:09.786Z,524.00
2023-05-02T00:22:09.773Z,524.00
2023-05-02T00:23:09.804Z,522.00
2023-05-02T00:24:09.902Z,524.00
2023-05-02T00:25:09.810Z,525.00
2023-05-02T00:26:09.012Z,527.00
2023-05-02T00:27:09.968Z,524.00
2023-05-02T00:28:09.924Z,523.00
2023-05-02T00:29:08.938Z,524.00
2023-05-02T00:30:08.950Z,524.00
2023-05-02T00:31:10.135Z,522.00
2023-05-02T00:32:10.060Z,524.00
2023-05-02T00:33:10.082Z,522.00
2023-05-02T00:34:10.089Z,522.00
2023-05-02T00:35:10.133Z,525.00
2023-05-02T00:36:10.172Z,524.00
2023-05-02T00:37:10.252Z,526.00
2023-05-02T00:38:10.257Z,525.00
2023-05-02T00:39:10.279Z,525.00
2023-05-02T00:40:10.327Z,529.00
2023-05-02T00:41:10.300Z,526.00
2023-05-02T00:42:09.350Z,527.00
2023-05-02T00:43:10.415Z,522.00
2023-05-02T00:44:10.434Z,522.00
2023-05-02T00:45:10.466Z,526.00
2023-05-02T00:46:10.539Z,517.00
2023-05-02T00:47:10.588Z,525.00
2023-05-02T00:48:10.671Z,522.00
2023-05-02T00:49:09.680Z,522.00
2023-05-02T00:50:09.710Z,526.00
2023-05-02T00:51:09.713Z,522.00
2023-05-02T00:52:10.791Z,526.00
2023-05-02T00:53:09.759Z,525.00
2023-05-02T00:54:10.796Z,523.00
2023-05-02T00:55:09.804Z,526.00
2023-05-02T00:56:09.887Z,523.00
2023-05-02T00:57:09.907Z,522.00
2023-05-02T00:58:09.982Z,521.00
2023-05-02T00:59:10.045Z,524.00
2023-05-02T01:00:11.039Z,523.00
2023-05-02T01:01:10.025Z,526.00
2023-05-02T01:02:11.096Z,525.00
2023-05-02T01:03:10.189Z,523.00
2023-05-02T01:04:11.195Z,525.00
2023-05-02T01:05:11.333Z,522.00
2023-05-02T01:06:11.414Z,525.00
2023-05-02T01:07:11.282Z,522.00
2023-05-02T01:08:11.337Z,525.00
2023-05-02T01:09:10.330Z,527.00
2023-05-02T01:10:10.484Z,525.00
2023-05-02T01:11:11.452Z,525.00
2023-05-02T01:12:10.409Z,528.00
2023-05-02T01:13:10.457Z,525.00
2023-05-02T01:14:11.502Z,524.00
2023-05-02T01:15:11.538Z,527.00
2023-05-02T01:16:11.646Z,522.00
2023-05-02T01:17:11.587Z,524.00
2023-05-02T01:18:11.744Z,524.00
2023-05-02T01:19:10.747Z,522.00
2023-05-02T01:20:10.810Z,522.00
2023-05-02T01:21:11.787Z,524.00
2023-05-02T01:22:10.781Z,521.00
2023-05-02T01:23:10.819Z,524.00
2023-05-02T01:24:11.905Z,523.00
2023-05-02T01:25:11.913Z,525.00
2023-05-02T01:26:11.959Z,523.00
2023-05-02T01:27:11.129Z,525.00
2023-05-02T01:28:11.086Z,523.00
2023-05-02T01:29:12.149Z,530.00
2023-05-02T01:30:11.282Z,525.00
2023-05-02T01:31:12.219Z,523.00
2023-05-02T01:32:12.203Z,522.00
2023-05-02T01:33:11.301Z,527.00
2023-05-02T01:34:12.342Z,528.00
2023-05-02T01:35:12.306Z,525.00
2023-05-02T01:36:12.335Z,526.00
2023-05-02T01:37:11.390Z,525.00
2023-05-02T01:38:12.461Z,525.00
2023-05-02T01:39:11.482Z,524.00
2023-05-02T01:40:12.588Z,527.00
2023-05-02T01:41:12.626Z,525.00
2023-05-02T01:42:11.622Z,526.00
2023-05-02T01:43:12.789Z,524.00
2023-05-02T01:44:12.706Z,525.00
2023-05-02T01:45:13.825Z,525.00
2023-05-02T01:46:14.347Z,525.00
2023-05-02T01:47:13.047Z,528.00
2023-05-02T01:48:11.914Z,536.00
2023-05-02T01:49:13.124Z,530.00
2023-05-02T01:50:11.909Z,527.00
2023-05-02T01:51:12.914Z,524.00
2023-05-02T01:52:11.951Z,531.00
2023-05-02T01:53:12.934Z,523.00
2023-05-02T01:54:12.878Z,524.00
2023-05-02T01:55:12.937Z,527.00
2023-05-02T01:56:12.890Z,523.00
2023-05-02T01:57:12.897Z,525.00
2023-05-02T01:58:12.895Z,525.00
2023-05-02T01:59:13.001Z,527.00
2023-05-02T02:00:11.896Z,525.00
2023-05-02T02:01:11.846Z,523.00
2023-05-02T02:02:11.843Z,526.00
2023-05-02T02:03:12.873Z,525.00
2023-05-02T02:04:12.865Z,525.00
2023-05-02T02:05:11.883Z,524.00
2023-05-02T02:06:13.031Z,524.00
2023-05-02T02:07:12.790Z,524.00
2023-05-02T02:08:12.768Z,527.00
2023-05-02T02:09:12.768Z,525.00
2023-05-02T02:10:12.796Z,528.00
2023-05-02T02:11:12.738Z,525.00
2023-05-02T02:12:12.803Z,528.00
2023-05-02T02:13:12.769Z,529.00
2023-05-02T02:14:11.892Z,527.00
2023-05-02T02:15:12.772Z,526.00
2023-05-02T02:16:12.935Z,527.00
2023-05-02T02:17:12.902Z,523.00
2023-05-02T02:18:12.035Z,520.00
2023-05-02T02:19:12.972Z,522.00
2023-05-02T02:20:12.002Z,523.00
2023-05-02T02:21:13.112Z,522.00
2023-05-02T02:22:12.107Z,527.00
2023-05-02T02:23:13.159Z,524.00
2023-05-02T02:24:13.182Z,527.00
2023-05-02T02:25:12.234Z,526.00
2023-05-02T02:26:12.293Z,527.00
2023-05-02T02:27:12.325Z,523.00
2023-05-02T02:28:13.602Z,526.00
2023-05-02T02:29:12.409Z,522.00
2023-05-02T02:30:12.484Z,525.00
2023-05-02T02:31:12.513Z,523.00
2023-05-02T02:32:13.696Z,523.00
2023-05-02T02:33:12.637Z,522.00
2023-05-02T02:34:13.713Z,522.00
2023-05-02T02:35:13.740Z,524.00
2023-05-02T02:36:12.917Z,523.00
2023-05-02T02:37:13.777Z,526.00
2023-05-02T02:38:12.910Z,525.00
2023-05-02T02:39:13.857Z,526.00
2023-05-02T02:40:14.134Z,525.00
2023-05-02T02:41:12.889Z,529.00
2023-05-02T02:42:12.942Z,526.00
2023-05-02T02:43:13.978Z,526.00
2023-05-02T02:44:14.001Z,530.00
2023-05-02T02:45:14.088Z,525.00
2023-05-02T02:46:14.162Z,522.00
2023-05-02T02:47:14.148Z,528.00
2023-05-02T02:48:13.288Z,531.00
2023-05-02T02:49:13.224Z,527.00
2023-05-02T02:50:14.291Z,524.00
2023-05-02T02:51:13.317Z,528.00
2023-05-02T02:52:14.355Z,523.00
2023-05-02T02:53:13.407Z,523.00
2023-05-02T02:54:25.753Z,525.00
2023-05-02T02:55:14.457Z,526.00
2023-05-02T02:56:14.402Z,526.00
2023-05-02T02:57:14.397Z,527.00
2023-05-02T02:58:14.397Z,527.00
2023-05-02T02:59:14.594Z,526.00
2023-05-02T03:00:14.482Z,527.00
2023-05-02T03:01:14.491Z,528.00
2023-05-02T03:02:13.443Z,525.00
2023-05-02T03:03:14.500Z,526.00
2023-05-02T03:04:13.550Z,524.00
2023-05-02T03:05:14.362Z,531.00
2023-05-02T03:06:14.587Z,529.00
2023-05-02T03:07:14.554Z,525.00
2023-05-02T03:08:13.386Z,523.00
2023-05-02T03:09:14.326Z,527.00
2023-05-02T03:10:14.353Z,524.00
2023-05-02T03:11:14.364Z,523.00
2023-05-02T03:12:13.317Z,526.00
2023-05-02T03:13:13.296Z,522.00
2023-05-02T03:14:13.290Z,529.00
2023-05-02T03:15:14.388Z,527.00
2023-05-02T03:16:14.381Z,519.00
2023-05-02T03:17:14.333Z,527.00
2023-05-02T03:18:14.486Z,524.00
2023-05-02T03:19:14.287Z,528.00
2023-05-02T03:20:14.326Z,525.00
2023-05-02T03:21:14.359Z,527.00
2023-05-02T03:22:14.279Z,523.00
2023-05-02T03:23:14.664Z,526.00
2023-05-02T03:24:13.282Z,523.00
2023-05-02T03:25:14.331Z,524.00
2023-05-02T03:26:14.306Z,522.00
2023-05-02T03:27:14.321Z,526.00
2023-05-02T03:28:14.398Z,524.00
2023-05-02T03:29:14.440Z,526.00
2023-05-02T03:30:14.524Z,526.00
2023-05-02T03:31:14.629Z,528.00
2023-05-02T03:32:16.607Z,524.00
2023-05-02T03:33:14.645Z,535.00
2023-05-02T03:34:13.564Z,531.00
2023-05-02T03:35:14.577Z,533.00
2023-05-02T03:36:13.584Z,529.00
2023-05-02T03:37:14.508Z,526.00
2023-05-02T03:38:14.603Z,527.00
2023-05-02T03:39:13.505Z,528.00
2023-05-02T03:40:14.507Z,525.00
2023-05-02T03:41:14.499Z,530.00
2023-05-02T03:42:14.477Z,526.00
2023-05-02T03:43:14.490Z,529.00
2023-05-02T03:44:14.564Z,529.00
2023-05-02T03:45:13.556Z,530.00
2023-05-02T03:46:14.524Z,532.00
2023-05-02T03:47:14.532Z,529.00
2023-05-02T03:48:13.568Z,530.00
2023-05-02T03:49:14.446Z,532.00
2023-05-02T03:50:14.423Z,531.00
2023-05-02T03:51:14.410Z,529.00
2023-05-02T03:52:13.402Z,526.00
2023-05-02T03:53:13.386Z,531.00
2023-05-02T03:54:14.429Z,526.00
2023-05-02T03:55:14.372Z,526.00
2023-05-02T03:56:14.393Z,526.00
2023-05-02T03:57:14.368Z,526.00
2023-05-02T03:58:14.453Z,526.00
2023-05-02T03:59:14.371Z,529.00
2023-05-02T04:00:14.412Z,532.00
2023-05-02T04:01:14.425Z,526.00
2023-05-02T04:02:14.534Z,533.00
2023-05-02T04:03:14.603Z,529.00
2023-05-02T04:04:14.641Z,529.00
2023-05-02T04:05:13.675Z,527.00
2023-05-02T04:06:14.695Z,526.00
2023-05-02T04:07:13.717Z,525.00
2023-05-02T04:08:14.769Z,526.00
2023-05-02T04:09:14.773Z,527.00
2023-05-02T04:10:13.834Z,525.00
2023-05-02T04:11:14.907Z,525.00
2023-05-02T04:12:13.898Z,529.00
2023-05-02T04:13:14.957Z,529.00
2023-05-02T04:14:14.988Z,529.00
2023-05-02T04:15:15.026Z,524.00
2023-05-02T04:16:15.095Z,527.00
2023-05-02T04:17:14.190Z,523.00
2023-05-02T04:18:15.216Z,524.00
2023-05-02T04:19:15.242Z,528.00
2023-05-02T04:20:15.518Z,532.00
2023-05-02T04:21:14.409Z,526.00
2023-05-02T04:22:14.419Z,528.00
2023-05-02T04:23:14.464Z,526.00
2023-05-02T04:24:15.608Z,531.00
2023-05-02T04:25:15.526Z,531.00
2023-05-02T04:26:15.599Z,523.00
2023-05-02T04:27:15.467Z,527.00
2023-05-02T04:28:15.675Z,528.00
2023-05-02T04:29:15.745Z,531.00
2023-05-02T04:30:15.969Z,531.00
2023-05-02T04:31:15.158Z,525.00
2023-05-02T04:32:16.121Z,525.00
2023-05-02T04:33:16.006Z,524.00
2023-05-02T04:34:14.951Z,526.00
2023-05-02T04:35:16.053Z,525.00
2023-05-02T04:36:16.064Z,526.00
2023-05-02T04:37:16.269Z,526.00
2023-05-02T04:38:15.091Z,526.00
2023-05-02T04:39:16.121Z,528.00
2023-05-02T04:40:15.190Z,527.00
2023-05-02T04:41:15.386Z,525.00
2023-05-02T04:42:16.508Z,522.00
2023-05-02T04:43:15.404Z,524.00
2023-05-02T04:44:16.334Z,525.00
2023-05-02T04:45:16.398Z,527.00
2023-05-02T04:46:16.514Z,524.00
2023-05-02T04:47:16.546Z,528.00
2023-05-02T04:48:15.541Z,524.00
2023-05-02T04:49:16.758Z,527.00
2023-05-02T04:50:15.673Z,524.00
2023-05-02T04:51:17.250Z,525.00
2023-05-02T04:52:15.743Z,523.00
2023-05-02T04:53:15.858Z,526.00
2023-05-02T04:54:16.973Z,525.00
2023-05-02T04:55:16.875Z,527.00
2023-05-02T04:56:17.047Z,524.00
2023-05-02T04:57:16.991Z,529.00
2023-05-02T04:58:16.107Z,525.00
2023-05-02T04:59:17.217Z,524.00
2023-05-02T05:00:17.152Z,523.00
2023-05-02T05:01:17.249Z,528.00
2023-05-02T05:02:17.454Z,529.00
2023-05-02T05:03:17.318Z,531.00
2023-05-02T05:04:17.389Z,529.00
2023-05-02T05:05:17.421Z,532.00
2023-05-02T05:06:17.621Z,532.00
2023-05-02T05:07:16.673Z,529.00
2023-05-02T05:08:17.643Z,528.00
2023-05-02T05:09:16.570Z,531.00
2023-05-02T05:10:17.602Z,530.00
2023-05-02T05:11:17.676Z,530.00
2023-05-02T05:12:17.874Z,530.00
2023-05-02T05:13:18.597Z,526.00
2023-05-02T05:14:16.762Z,532.00
2023-05-02T05:15:16.815Z,534.00
2023-05-02T05:16:17.810Z,531.00
2023-05-02T05:17:16.847Z,530.00
2023-05-02T05:18:16.911Z,541.00
2023-05-02T05:19:17.097Z,535.00
2023-05-02T05:20:17.855Z,536.00
2023-05-02T05:21:16.936Z,540.00
2023-05-02T05:22:17.989Z,541.00
2023-05-02T05:23:17.177Z,539.00
2023-05-02T05:24:18.019Z,544.00
2023-05-02T05:25:17.412Z,542.00
2023-05-02T05:26:17.964Z,545.00
2023-05-02T05:27:16.960Z,550.00
2023-05-02T05:28:17.969Z,549.00
2023-05-02T05:29:18.614Z,551.00
2023-05-02T05:30:17.055Z,553.00
2023-05-02T05:31:18.035Z,556.00
2023-05-02T05:32:18.028Z,562.00
2023-05-02T05:33:17.159Z,576.00
2023-05-02T05:34:18.198Z,580.00
2023-05-02T05:35:18.518Z,585.00
2023-05-02T05:36:18.504Z,583.00
2023-05-02T05:37:18.607Z,593.00
2023-05-02T05:38:19.025Z,597.00
2023-05-02T05:39:24.074Z,608.00
2023-05-02T05:40:19.494Z,609.00
2023-05-02T05:41:18.832Z,612.00
2023-05-02T05:42:19.784Z,615.00
2023-05-02T05:43:17.697Z,622.00
2023-05-02T05:44:17.311Z,631.00
2023-05-02T05:45:18.618Z,641.00
2023-05-02T05:46:18.804Z,652.00
2023-05-02T05:47:18.318Z,649.00
2023-05-02T05:48:17.202Z,659.00
2023-05-02T05:49:17.460Z,654.00
2023-05-02T05:50:17.277Z,659.00
2023-05-02T05:51:17.458Z,694.00
2023-05-02T05:52:18.797Z,699.00
2023-05-02T05:53:18.233Z,716.00
2023-05-02T05:54:18.771Z,732.00
2023-05-02T05:55:18.543Z,752.00
2023-05-02T05:56:19.375Z,787.00
2023-05-02T05:57:17.216Z,807.00
2023-05-02T05:58:17.639Z,832.00
2023-05-02T05:59:17.510Z,835.00
2023-05-02T06:00:18.647Z,855.00
2023-05-02T06:01:18.899Z,951.00
2023-05-02T06:02:19.040Z,895.00
2023-05-02T06:03:18.891Z,937.00
2023-05-02T06:04:18.592Z,956.00
2023-05-02T06:05:17.558Z,959.00
2023-05-02T06:06:18.648Z,961.00
2023-05-02T06:07:18.657Z,1021.00
2023-05-02T06:08:17.714Z,1061.00
2023-05-02T06:09:18.760Z,1088.00
2023-05-02T06:10:19.085Z,1074.00
2023-05-02T06:11:18.154Z,1081.00
2023-05-02T06:12:18.941Z,1085.00
2023-05-02T06:13:17.983Z,1104.00
2023-05-02T06:14:19.009Z,1124.00
2023-05-02T06:15:19.085Z,1129.00
2023-05-02T06:16:19.080Z,1138.00
2023-05-02T06:17:18.111Z,1160.00
2023-05-02T06:18:19.138Z,1167.00
2023-05-02T06:19:25.138Z,1194.00
2023-05-02T06:20:19.135Z,1195.00
2023-05-02T06:21:18.116Z,1196.00
2023-05-02T06:22:18.129Z,1204.00
2023-05-02T06:23:19.111Z,1228.00
2023-05-02T06:24:19.099Z,1244.00
2023-05-02T06:25:18.104Z,1235.00
2023-05-02T06:26:19.104Z,1256.00
2023-05-02T06:27:18.082Z,1239.00
2023-05-02T06:28:19.082Z,1247.00
2023-05-02T06:29:18.079Z,1261.00
2023-05-02T06:30:19.081Z,1261.00
2023-05-02T06:31:19.086Z,1288.00
2023-05-02T06:32:19.072Z,1296.00
2023-05-02T06:33:19.036Z,1298.00
2023-05-02T06:34:19.043Z,1289.00
2023-05-02T06:35:19.040Z,1301.00
2023-05-02T06:36:19.052Z,1321.00
2023-05-02T06:37:18.067Z,1313.00
2023-05-02T06:38:19.023Z,1297.00
2023-05-02T06:39:18.013Z,1316.00
2023-05-02T06:40:18.984Z,1336.00
2023-05-02T06:41:18.999Z,1327.00
2023-05-02T06:42:18.970Z,1332.00
2023-05-02T06:43:17.961Z,1342.00
2023-05-02T06:44:18.959Z,1339.00
2023-05-02T06:45:18.958Z,1343.00
2023-05-02T06:46:17.962Z,1364.00
2023-05-02T06:47:18.991Z,1348.00
2023-05-02T06:48:18.016Z,1357.00
2023-05-02T06:49:17.931Z,1360.00
2023-05-02T06:50:17.927Z,1358.00
2023-05-02T06:51:19.283Z,1371.00
2023-05-02T06:52:19.279Z,1387.00
2023-05-02T06:53:17.896Z,1360.00
2023-05-02T06:54:18.888Z,1376.00
2023-05-02T06:55:17.878Z,1368.00
2023-05-02T06:56:18.867Z,1375.00
2023-05-02T06:57:19.286Z,1405.00
2023-05-02T06:58:18.869Z,1411.00
2023-05-02T06:59:18.854Z,1419.00
2023-05-02T07:00:18.893Z,1439.00
2023-05-02T07:01:17.861Z,1448.00
2023-05-02T07:02:17.837Z,1450.00
2023-05-02T07:03:18.838Z,1456.00
2023-05-02T07:04:17.957Z,1441.00
2023-05-02T07:05:17.833Z,1443.00
2023-05-02T07:06:17.872Z,1450.00
2023-05-02T07:07:18.979Z,1465.00
2023-05-02T07:08:17.790Z,1467.00
2023-05-02T07:09:18.795Z,1472.00
2023-05-02T07:10:17.787Z,1473.00
2023-05-02T07:11:18.774Z,1500.00
2023-05-02T07:12:18.773Z,1481.00
2023-05-02T07:13:18.748Z,1489.00
2023-05-02T07:14:18.785Z,1519.00
2023-05-02T07:15:18.775Z,1546.00
2023-05-02T07:16:17.777Z,1517.00
2023-05-02T07:17:18.758Z,1514.00
2023-05-02T07:18:18.762Z,1532.00
2023-05-02T07:19:18.746Z,1530.00
2023-05-02T07:20:18.770Z,1540.00
2023-05-02T07:21:18.700Z,1536.00
2023-05-02T07:22:17.712Z,1549.00
2023-05-02T07:23:17.687Z,1582.00
2023-05-02T07:24:17.684Z,1568.00
2023-05-02T07:25:17.691Z,1560.00
2023-05-02T07:26:17.705Z,1574.00
2023-05-02T07:27:17.709Z,1555.00
2023-05-02T07:28:17.712Z,1542.00
2023-05-02T07:29:17.715Z,1554.00
2023-05-02T07:30:18.776Z,1591.00
2023-05-02T07:31:18.998Z,1584.00
2023-05-02T07:32:18.869Z,1594.00
2023-05-02T07:33:18.817Z,1584.00
2023-05-02T07:34:18.822Z,1583.00
2023-05-02T07:35:17.838Z,1586.00
2023-05-02T07:36:17.852Z,1615.00
2023-05-02T07:37:18.859Z,1604.00
2023-05-02T07:38:17.882Z,1597.00
2023-05-02T07:39:17.891Z,1596.00
2023-05-02T07:40:18.962Z,1622.00
2023-05-02T07:41:17.956Z,1616.00
2023-05-02T07:42:18.005Z,1633.00
2023-05-02T07:43:19.048Z,1621.00
2023-05-02T07:44:19.060Z,1595.00
2023-05-02T07:45:18.110Z,1610.00
2023-05-02T07:46:19.178Z,1645.00
2023-05-02T07:47:19.296Z,1661.00
2023-05-02T07:48:18.140Z,1580.00
2023-05-02T07:49:19.141Z,1567.00
2023-05-02T07:50:19.138Z,1543.00
2023-05-02T07:51:19.143Z,1572.00
2023-05-02T07:52:19.334Z,1576.00
2023-05-02T07:53:19.162Z,1594.00
2023-05-02T07:54:19.166Z,1592.00
2023-05-02T07:55:19.198Z,1603.00
2023-05-02T07:56:18.208Z,1567.00
2023-05-02T07:57:18.246Z,1564.00
2023-05-02T07:58:18.258Z,1586.00
2023-05-02T07:59:19.248Z,1588.00
2023-05-02T08:00:18.250Z,1625.00
2023-05-02T08:01:18.285Z,1637.00
2023-05-02T08:02:19.367Z,1656.00
2023-05-02T08:03:18.367Z,1609.00
2023-05-02T08:04:19.474Z,1522.00
2023-05-02T08:05:18.552Z,1383.00
2023-05-02T08:06:18.439Z,1335.00
2023-05-02T08:07:19.370Z,1029.00
2023-05-02T08:08:18.436Z,711.00
2023-05-02T08:09:18.439Z,922.00
2023-05-02T08:10:19.448Z,997.00
2023-05-02T08:11:20.455Z,1013.00
2023-05-02T08:12:19.501Z,1037.00
2023-05-02T08:13:19.461Z,1041.00
2023-05-02T08:14:19.445Z,1079.00
2023-05-02T08:15:19.508Z,1132.00
2023-05-02T08:16:19.508Z,1142.00
2023-05-02T08:17:18.444Z,1165.00
2023-05-02T08:18:19.433Z,1156.00
2023-05-02T08:19:19.435Z,1202.00
2023-05-02T08:20:19.430Z,1215.00
2023-05-02T08:21:18.424Z,1211.00
2023-05-02T08:22:19.411Z,1215.00
2023-05-02T08:23:18.386Z,1224.00
2023-05-02T08:24:19.473Z,1227.00
2023-05-02T08:25:18.388Z,1219.00
2023-05-02T08:26:19.371Z,1220.00
2023-05-02T08:27:19.391Z,1237.00
2023-05-02T08:28:18.382Z,1253.00
2023-05-02T08:29:19.364Z,1246.00
2023-05-02T08:30:19.368Z,1284.00
2023-05-02T08:31:18.404Z,1272.00
2023-05-02T08:32:19.354Z,1300.00
2023-05-02T08:33:19.338Z,1287.00
2023-05-02T08:34:19.351Z,1292.00
2023-05-02T08:35:18.312Z,1301.00
2023-05-02T08:36:18.300Z,1288.00
2023-05-02T08:37:19.314Z,1305.00
2023-05-02T08:38:18.316Z,1321.00
2023-05-02T08:39:19.269Z,1300.00
2023-05-02T08:40:27.332Z,1324.00
2023-05-02T08:41:19.284Z,1329.00
2023-05-02T08:42:18.253Z,1334.00
2023-05-02T08:43:19.331Z,1338.00
2023-05-02T08:44:18.242Z,1341.00
2023-05-02T08:45:19.245Z,1383.00
2023-05-02T08:46:19.293Z,1409.00
2023-05-02T08:47:19.396Z,1411.00
2023-05-02T08:48:19.249Z,1377.00
2023-05-02T08:49:19.217Z,1370.00
2023-05-02T08:50:19.225Z,1387.00
2023-05-02T08:52:18.229Z,1441.00
2023-05-02T08:53:19.209Z,1455.00
2023-05-02T08:54:18.182Z,1500.00
2023-05-02T08:55:19.184Z,1534.00
2023-05-02T08:56:19.216Z,1572.00
2023-05-02T08:57:19.184Z,1588.00
2023-05-02T08:58:19.306Z,1539.00
2023-05-02T08:59:19.173Z,1358.00
2023-05-02T09:00:18.147Z,1345.00
2023-05-02T09:01:18.147Z,1193.00
2023-05-02T09:02:19.143Z,1001.00
2023-05-02T09:03:18.118Z,876.00
2023-05-02T09:04:19.149Z,765.00
2023-05-02T09:05:19.113Z,678.00
2023-05-02T09:06:18.134Z,632.00
2023-05-02T09:07:19.096Z,632.00
2023-05-02T09:08:18.098Z,610.00
2023-05-02T09:09:19.515Z,662.00
2023-05-02T09:10:18.088Z,765.00
2023-05-02T09:11:19.105Z,659.00
2023-05-02T09:12:18.085Z,655.00
2023-05-02T09:13:18.065Z,624.00
2023-05-02T09:14:18.051Z,655.00
2023-05-02T09:15:20.926Z,620.00
2023-05-02T09:16:18.098Z,628.00
2023-05-02T09:17:18.043Z,630.00
2023-05-02T09:18:19.027Z,660.00
2023-05-02T09:19:18.016Z,661.00
2023-05-02T09:20:19.042Z,663.00
2023-05-02T09:21:20.563Z,647.00
2023-05-02T09:22:19.022Z,647.00
2023-05-02T09:23:18.985Z,650.00
2023-05-02T09:24:19.001Z,612.00
2023-05-02T09:25:19.024Z,607.00
2023-05-02T09:26:19.007Z,647.00
2023-05-02T09:27:18.958Z,698.00
2023-05-02T09:28:19.001Z,643.00
2023-05-02T09:29:17.954Z,654.00
2023-05-02T09:30:17.939Z,620.00
2023-05-02T09:31:27.049Z,645.00
2023-05-02T09:32:19.081Z,645.00
2023-05-02T09:33:19.213Z,610.00
2023-05-02T09:34:17.951Z,580.00
2023-05-02T09:35:18.910Z,596.00
2023-05-02T09:36:18.937Z,592.00
2023-05-02T09:37:18.921Z,611.00
2023-05-02T09:38:17.921Z,619.00
2023-05-02T09:39:17.894Z,602.00
2023-05-02T09:40:17.889Z,592.00
2023-05-02T09:41:17.967Z,623.00
2023-05-02T09:42:18.893Z,628.00
2023-05-02T09:43:17.880Z,615.00
2023-05-02T09:44:18.906Z,620.00
2023-05-02T09:45:18.864Z,640.00
2023-05-02T09:46:18.979Z,619.00
2023-05-02T09:47:18.934Z,558.00
2023-05-02T09:48:18.352Z,502.00
2023-05-02T09:49:19.172Z,500.00
2023-05-02T09:50:19.027Z,500.00
2023-05-02T09:51:19.079Z,509.00
2023-05-02T09:52:19.126Z,500.00
2023-05-02T09:53:19.173Z,505.00
2023-05-02T09:54:19.254Z,498.00
2023-05-02T09:55:18.265Z,500.00
2023-05-02T09:56:18.589Z,500.00
2023-05-02T09:57:18.350Z,504.00
2023-05-02T09:58:19.390Z,500.00
2023-05-02T09:59:18.419Z,500.00
2023-05-02T10:00:19.499Z,504.00
2023-05-02T10:01:18.572Z,501.00
2023-05-02T10:02:18.578Z,500.00
2023-05-02T10:03:18.688Z,500.00
2023-05-02T10:04:18.733Z,506.00
2023-05-02T10:05:19.704Z,505.00
2023-05-02T10:06:18.770Z,501.00
2023-05-02T10:07:19.803Z,502.00
2023-05-02T10:08:19.844Z,501.00
2023-05-02T10:09:21.530Z,508.00
2023-05-02T10:10:19.868Z,500.00
2023-05-02T10:11:19.861Z,500.00
2023-05-02T10:12:18.869Z,500.00
2023-05-02T10:13:19.856Z,507.00
2023-05-02T10:14:19.845Z,500.00
2023-05-02T10:15:19.829Z,500.00
2023-05-02T10:16:19.864Z,502.00
2023-05-02T10:17:19.810Z,512.00
2023-05-02T10:18:19.807Z,518.00
2023-05-02T10:19:18.820Z,515.00
2023-05-02T10:20:18.789Z,507.00
2023-05-02T10:21:19.800Z,500.00
2023-05-02T10:22:18.785Z,503.00
2023-05-02T10:23:18.791Z,515.00
2023-05-02T10:24:18.760Z,519.00
2023-05-02T10:25:19.784Z,518.00
2023-05-02T10:26:19.747Z,505.00
2023-05-02T10:27:19.743Z,503.00
2023-05-02T10:28:19.749Z,500.00
2023-05-02T10:29:18.739Z,500.00
2023-05-02T10:30:19.732Z,510.00
2023-05-02T10:31:19.793Z,502.00
2023-05-02T10:32:19.730Z,507.00
2023-05-02T10:33:19.732Z,513.00
2023-05-02T10:34:18.707Z,520.00
2023-05-02T10:35:19.733Z,511.00
2023-05-02T10:36:19.694Z,516.00
2023-05-02T10:37:18.678Z,507.00
2023-05-02T10:38:20.734Z,500.00
2023-05-02T10:39:19.683Z,500.00
2023-05-02T10:40:19.675Z,503.00
2023-05-02T10:41:19.676Z,501.00
2023-05-02T10:42:19.654Z,504.00
2023-05-02T10:43:19.839Z,550.00
2023-05-02T10:44:19.639Z,579.00
2023-05-02T10:45:18.630Z,569.00
2023-05-02T10:46:18.706Z,573.00
2023-05-02T10:47:19.631Z,578.00
2023-05-02T10:48:18.631Z,574.00
2023-05-02T10:49:18.601Z,578.00
2023-05-02T10:50:18.601Z,579.00
2023-05-02T10:51:19.589Z,582.00
2023-05-02T10:52:19.582Z,589.00
2023-05-02T10:53:18.588Z,592.00
2023-05-02T10:54:19.591Z,586.00
2023-05-02T10:55:19.613Z,592.00
2023-05-02T10:56:19.558Z,595.00
2023-05-02T10:57:18.551Z,598.00
2023-05-02T10:58:19.545Z,605.00
2023-05-02T10:59:19.546Z,600.00
2023-05-02T11:00:19.541Z,607.00
2023-05-02T11:01:18.543Z,607.00
2023-05-02T11:02:19.529Z,609.00
2023-05-02T11:03:19.536Z,608.00
2023-05-02T11:04:19.526Z,610.00
2023-05-02T11:05:18.511Z,608.00
2023-05-02T11:06:18.518Z,609.00
2023-05-02T11:07:19.487Z,614.00
2023-05-02T11:08:21.336Z,613.00
2023-05-02T11:09:18.470Z,614.00
2023-05-02T11:10:18.465Z,614.00
2023-05-02T11:11:18.455Z,607.00
2023-05-02T11:12:18.449Z,612.00
2023-05-02T11:13:19.443Z,599.00
2023-05-02T11:14:18.596Z,623.00
2023-05-02T11:15:19.429Z,619.00
2023-05-02T11:16:19.507Z,659.00
2023-05-02T11:17:18.405Z,645.00
2023-05-02T11:18:19.414Z,638.00
2023-05-02T11:19:19.401Z,650.00
2023-05-02T11:20:19.417Z,657.00
2023-05-02T11:21:18.387Z,713.00
2023-05-02T11:22:19.370Z,730.00
2023-05-02T11:23:19.380Z,878.00
2023-05-02T11:24:19.357Z,807.00
2023-05-02T11:25:19.359Z,866.00
2023-05-02T11:26:19.345Z,916.00
2023-05-02T11:27:19.414Z,967.00
2023-05-02T11:28:19.347Z,1000.00
2023-05-02T11:29:19.332Z,977.00
2023-05-02T11:30:19.329Z,984.00
2023-05-02T11:31:18.323Z,973.00
2023-05-02T11:32:19.359Z,989.00
2023-05-02T11:33:19.360Z,978.00
2023-05-02T11:34:19.305Z,985.00
2023-05-02T11:35:19.303Z,984.00
2023-05-02T11:36:19.326Z,1021.00
2023-05-02T11:37:18.288Z,1015.00
2023-05-02T11:38:19.307Z,996.00
2023-05-02T11:39:18.400Z,1019.00
2023-05-02T11:40:19.338Z,1055.00
2023-05-02T11:41:19.326Z,1067.00
2023-05-02T11:42:19.347Z,1104.00
2023-05-02T11:43:18.442Z,1096.00
2023-05-02T11:44:18.396Z,1118.00
2023-05-02T11:45:18.407Z,1139.00
2023-05-02T11:46:19.468Z,1131.00
2023-05-02T11:47:19.426Z,1105.00
2023-05-02T11:48:18.446Z,1114.00
2023-05-02T11:49:18.474Z,1086.00
2023-05-02T11:50:19.488Z,1083.00
2023-05-02T11:51:18.484Z,1066.00
2023-05-02T11:52:18.509Z,1081.00
2023-05-02T11:53:18.520Z,1085.00
2023-05-02T11:54:19.529Z,1089.00
2023-05-02T11:55:19.556Z,1066.00
2023-05-02T11:56:18.610Z,1073.00
2023-05-02T11:57:18.595Z,1054.00
2023-05-02T11:58:18.612Z,1056.00
2023-05-02T11:59:19.639Z,1067.00
2023-05-02T12:00:18.650Z,1063.00
2023-05-02T12:01:18.665Z,1062.00
2023-05-02T12:02:19.712Z,1048.00
2023-05-02T12:03:19.826Z,1040.00
2023-05-02T12:04:18.709Z,1028.00
2023-05-02T12:05:19.794Z,1044.00
2023-05-02T12:06:19.273Z,1051.00
2023-05-02T12:07:18.833Z,1034.00
2023-05-02T12:08:18.851Z,1034.00
2023-05-02T12:09:18.821Z,1042.00
2023-05-02T12:10:18.842Z,1056.00
2023-05-02T12:11:19.860Z,1024.00
2023-05-02T12:12:19.880Z,1052.00
2023-05-02T12:13:19.889Z,1025.00
2023-05-02T12:14:18.924Z,1026.00
2023-05-02T12:15:19.950Z,1002.00
2023-05-02T12:16:19.094Z,1007.00
2023-05-02T12:17:19.992Z,1004.00
2023-05-02T12:18:21.404Z,988.00
2023-05-02T12:19:18.996Z,981.00
2023-05-02T12:20:19.986Z,975.00
2023-05-02T12:21:18.966Z,965.00
2023-05-02T12:22:19.968Z,963.00